Time;durP1;ratioP1;P1;durP2;ratioP2;P2;SDS_P1;SDS_P2;PMS_P1;PMS_P2;Temp;Humidity;BMP_temperature;BMP_pressure;BME280_temperature;BME280_humidity;BME280_pressure;Samples;Min_cycle;Max_cycle;Signal;HPM_P1;HPM_P2
2023/07/01 00:01:31;;;;;;;14.70;9.30;;;;;;;;;;108179;1255;25444;-80
2023/07/01 00:03:58;;;;;;;14.20;9.40;;;;;;;;;;108173;1255;22586;-79
2023/07/01 00:06:26;;;;;;;15.30;9.40;;;;;;;;;;108154;1251;23162;-79
2023/07/01 00:08:53;;;;;;;15.30;10.60;;;;;;;;;;108178;1255;23136;-79
2023/07/01 00:11:20;;;;;;;15.40;10.70;;;;;;;;;;108249;1251;25290;-79
2023/07/01 00:13:46;;;;;;;13.30;10.60;;;;;;;;;;108124;1253;22560;-79
2023/07/01 00:16:13;;;;;;;14.30;10.20;;;;;;;;;;108076;1251;25938;-80
2023/07/01 00:18:40;;;;;;;16.30;9.70;;;;;;;;;;108021;1256;22517;-79
2023/07/01 00:21:07;;;;;;;16.30;10.10;;;;;;;;;;108208;1251;22682;-79
2023/07/01 00:23:33;;;;;;;13.50;9.60;;;;;;;;;;108185;1251;22559;-79
2023/07/01 00:26:00;;;;;;;15.60;10.20;;;;;;;;;;108200;1252;23312;-79
2023/07/01 00:28:26;;;;;;;12.30;9.90;;;;;;;;;;108114;1252;22682;-79
2023/07/01 00:30:52;;;;;;;12.50;9.60;;;;;;;;;;108143;1253;23642;-79
2023/07/01 00:33:19;;;;;;;15.90;11.00;;;;;;;;;;108146;1251;22694;-79
2023/07/01 00:35:46;;;;;;;16.30;10.70;;;;;;;;;;108097;1254;22528;-79
2023/07/01 00:38:12;;;;;;;14.00;10.30;;;;;;;;;;108141;1251;22526;-79
2023/07/01 00:40:38;;;;;;;15.30;10.70;;;;;;;;;;108217;1251;23790;-80
2023/07/01 00:43:05;;;;;;;19.70;10.40;;;;;;;;;;108134;1254;23315;-79
2023/07/01 00:45:31;;;;;;;12.60;9.70;;;;;;;;;;108244;1253;22592;-80
2023/07/01 00:47:58;;;;;;;11.50;9.50;;;;;;;;;;108508;1251;22519;-80
2023/07/01 00:50:24;;;;;;;11.30;9.30;;;;;;;;;;108035;1257;22546;-80
2023/07/01 00:52:50;;;;;;;14.90;10.10;;;;;;;;;;107778;1255;22982;-81
2023/07/01 00:55:17;;;;;;;15.80;9.80;;;;;;;;;;107964;1251;26612;-80
2023/07/01 00:57:43;;;;;;;13.00;10.50;;;;;;;;;;108166;1253;22528;-80
2023/07/01 01:00:10;;;;;;;12.00;9.80;;;;;;;;;;108190;1251;23198;-80
2023/07/01 01:02:54;;;;;;;18.00;10.50;;;;;;;;;;108221;1255;22642;-80
2023/07/01 01:05:30;;;;;;;16.00;9.90;;;;;;;;;;108173;1253;22542;-80
2023/07/01 01:08:00;;;;;;;13.60;10.50;;;;;;;;;;108191;1254;22636;-80
2023/07/01 01:10:27;;;;;;;11.20;9.30;;;;;;;;;;108171;1251;22700;-80
2023/07/01 01:12:55;;;;;;;13.50;10.10;;;;;;;;;;108242;1251;24378;-80
2023/07/01 01:15:22;;;;;;;13.10;10.80;;;;;;;;;;108078;1257;22540;-80
2023/07/01 01:17:48;;;;;;;12.50;9.00;;;;;;;;;;108229;1251;25508;-80
2023/07/01 01:20:16;;;;;;;14.60;9.60;;;;;;;;;;108083;1253;22737;-80
2023/07/01 01:22:42;;;;;;;14.80;10.70;;;;;;;;;;108032;1251;22581;-80
2023/07/01 01:25:08;;;;;;;13.20;9.90;;;;;;;;;;108198;1256;22543;-80
2023/07/01 01:27:36;;;;;;;10.30;9.30;;;;;;;;;;107996;1252;22525;-80
2023/07/01 01:30:03;;;;;;;10.80;8.80;;;;;;;;;;108030;1251;22666;-80
2023/07/01 01:32:29;;;;;;;12.10;9.20;;;;;;;;;;108222;1255;25490;-80
2023/07/01 01:34:56;;;;;;;11.90;9.70;;;;;;;;;;108229;1251;22538;-80
2023/07/01 01:37:45;;;;;;;12.70;9.40;;;;;;;;;;108197;1253;22533;-80
2023/07/01 01:40:17;;;;;;;10.80;9.00;;;;;;;;;;108159;1251;22588;-80
2023/07/01 01:42:44;;;;;;;11.50;8.70;;;;;;;;;;108057;1256;22614;-80
2023/07/01 01:45:12;;;;;;;15.40;8.60;;;;;;;;;;108164;1251;24331;-80
2023/07/01 01:47:38;;;;;;;15.00;9.70;;;;;;;;;;108196;1253;26493;-80
2023/07/01 01:50:07;;;;;;;11.00;9.90;;;;;;;;;;108029;1256;22627;-80
2023/07/01 01:52:33;;;;;;;;;;;;;;;;;;108192;1251;25348;-80
2023/07/01 01:54:59;;;;;;;12.90;9.30;;;;;;;;;;108158;1251;26505;-80
2023/07/01 01:57:26;;;;;;;14.50;9.40;;;;;;;;;;108116;1253;22523;-80
2023/07/01 01:59:52;;;;;;;11.00;8.80;;;;;;;;;;108050;1258;23398;-80
2023/07/01 02:02:19;;;;;;;14.50;9.10;;;;;;;;;;108044;1254;26317;-80
2023/07/01 02:04:45;;;;;;;13.80;9.60;;;;;;;;;;108221;1251;23019;-80
2023/07/01 02:07:11;;;;;;;13.00;9.90;;;;;;;;;;108194;1251;22542;-80
2023/07/01 02:09:38;;;;;;;10.30;9.20;;;;;;;;;;108165;1254;22660;-80
2023/07/01 02:12:04;;;;;;;16.50;9.30;;;;;;;;;;108209;1251;22597;-80
2023/07/01 02:14:31;;;;;;;12.80;9.80;;;;;;;;;;108150;1254;22532;-80
2023/07/01 02:16:57;;;;;;;10.50;8.90;;;;;;;;;;108172;1253;22588;-80
2023/07/01 02:19:24;;;;;;;13.80;9.40;;;;;;;;;;108207;1251;22698;-80
2023/07/01 02:21:50;;;;;;;11.80;9.60;;;;;;;;;;108165;1251;22643;-80
2023/07/01 02:24:16;;;;;;;14.80;9.90;;;;;;;;;;108186;1251;22566;-80
2023/07/01 02:26:45;;;;;;;14.70;10.10;;;;;;;;;;108159;1251;22550;-80
2023/07/01 02:29:11;;;;;;;15.10;9.70;;;;;;;;;;108156;1251;22534;-80
2023/07/01 02:31:37;;;;;;;12.70;10.40;;;;;;;;;;108213;1251;25358;-80
2023/07/01 02:34:04;;;;;;;12.20;10.00;;;;;;;;;;108198;1251;23175;-80
2023/07/01 02:36:30;;;;;;;14.10;11.00;;;;;;;;;;108208;1251;24393;-80
2023/07/01 02:38:57;;;;;;;14.80;10.40;;;;;;;;;;108182;1251;23283;-80
2023/07/01 02:41:23;;;;;;;13.80;9.50;;;;;;;;;;108184;1251;22547;-80
2023/07/01 02:43:49;;;;;;;11.80;9.90;;;;;;;;;;108314;1254;22541;-80
2023/07/01 02:46:16;;;;;;;14.90;9.60;;;;;;;;;;108412;1251;25428;-80
2023/07/01 02:48:42;;;;;;;15.30;10.10;;;;;;;;;;108652;1254;25396;-80
2023/07/01 02:51:08;;;;;;;16.10;10.90;;;;;;;;;;108215;1251;25177;-80
2023/07/01 02:53:35;;;;;;;13.90;10.90;;;;;;;;;;108028;1256;23013;-80
2023/07/01 02:56:02;;;;;;;12.40;10.10;;;;;;;;;;108181;1254;22587;-81
2023/07/01 02:58:28;;;;;;;12.30;10.10;;;;;;;;;;108272;1251;22646;-82
2023/07/01 03:00:55;;;;;;;13.80;10.00;;;;;;;;;;108150;1254;22547;-81
2023/07/01 03:03:21;;;;;;;15.10;10.30;;;;;;;;;;108168;1251;22591;-80
2023/07/01 03:05:47;;;;;;;12.00;10.10;;;;;;;;;;108215;1251;24170;-80
2023/07/01 03:08:14;;;;;;;13.50;10.20;;;;;;;;;;108160;1251;22551;-80
2023/07/01 03:10:40;;;;;;;14.80;9.50;;;;;;;;;;108168;1254;23231;-80
2023/07/01 03:13:07;;;;;;;12.80;10.00;;;;;;;;;;108025;1256;25391;-81
2023/07/01 03:15:33;;;;;;;13.50;10.10;;;;;;;;;;108201;1252;25270;-81
2023/07/01 03:18:00;;;;;;;11.90;9.60;;;;;;;;;;108144;1251;22584;-81
2023/07/01 03:20:26;;;;;;;17.70;9.70;;;;;;;;;;108198;1251;23377;-80
2023/07/01 03:22:53;;;;;;;14.50;9.90;;;;;;;;;;108166;1251;22586;-80
2023/07/01 03:25:19;;;;;;;11.70;10.00;;;;;;;;;;108025;1250;24215;-80
2023/07/01 03:27:46;;;;;;;12.10;9.50;;;;;;;;;;108178;1251;25264;-80
2023/07/01 03:30:16;;;;;;;10.80;9.30;;;;;;;;;;108207;1251;22526;-80
2023/07/01 03:32:43;;;;;;;13.50;9.10;;;;;;;;;;108193;1251;22822;-80
2023/07/01 03:35:10;;;;;;;12.40;9.00;;;;;;;;;;108219;1252;23060;-81
2023/07/01 03:37:37;;;;;;;13.00;10.70;;;;;;;;;;108318;1250;22618;-80
2023/07/01 03:40:04;;;;;;;16.30;10.30;;;;;;;;;;108208;1251;23374;-80
2023/07/01 03:42:31;;;;;;;13.60;10.20;;;;;;;;;;108161;1251;23339;-80
2023/07/01 03:44:57;;;;;;;15.90;11.30;;;;;;;;;;108211;1251;25574;-80
2023/07/01 03:47:24;;;;;;;16.30;9.50;;;;;;;;;;108167;1251;22647;-81
2023/07/01 03:49:50;;;;;;;13.70;11.30;;;;;;;;;;108109;1251;22998;-80
2023/07/01 03:52:16;;;;;;;14.70;9.40;;;;;;;;;;108112;1251;22716;-80
2023/07/01 03:54:43;;;;;;;11.90;9.40;;;;;;;;;;108184;1251;22615;-80
2023/07/01 03:57:09;;;;;;;12.70;9.40;;;;;;;;;;108151;1251;22777;-80
2023/07/01 03:59:36;;;;;;;13.60;9.90;;;;;;;;;;108105;1251;23903;-80
2023/07/01 04:02:03;;;;;;;11.40;9.50;;;;;;;;;;107941;1251;25333;-80
2023/07/01 04:04:30;;;;;;;13.10;9.50;;;;;;;;;;108215;1251;22535;-80
2023/07/01 04:06:57;;;;;;;12.90;9.30;;;;;;;;;;108139;1251;25233;-80
2023/07/01 04:09:23;;;;;;;20.30;12.20;;;;;;;;;;108152;1251;22882;-80
2023/07/01 04:11:50;;;;;;;15.30;9.90;;;;;;;;;;108134;1251;24418;-80
2023/07/01 04:14:16;;;;;;;13.30;9.50;;;;;;;;;;108177;1251;22535;-80
2023/07/01 04:16:44;;;;;;;16.10;10.60;;;;;;;;;;108134;1251;24330;-80
2023/07/01 04:19:10;;;;;;;13.30;11.00;;;;;;;;;;108166;1251;22698;-81
2023/07/01 04:21:37;;;;;;;12.10;10.10;;;;;;;;;;107991;1251;23295;-80
2023/07/01 04:24:05;;;;;;;16.90;11.30;;;;;;;;;;108285;1251;22627;-80
2023/07/01 04:26:31;;;;;;;17.20;13.40;;;;;;;;;;108135;1251;25075;-80
2023/07/01 04:28:58;;;;;;;17.20;13.10;;;;;;;;;;108189;1251;22572;-80
2023/07/01 04:31:24;;;;;;;17.30;12.20;;;;;;;;;;108147;1250;22463;-80
2023/07/01 04:33:50;;;;;;;16.20;12.20;;;;;;;;;;108174;1251;22791;-80
2023/07/01 04:36:17;;;;;;;15.90;11.90;;;;;;;;;;108145;1251;22580;-81
2023/07/01 04:38:43;;;;;;;15.80;11.60;;;;;;;;;;107989;1255;25279;-81
2023/07/01 04:41:10;;;;;;;13.70;11.10;;;;;;;;;;108178;1251;22524;-80
2023/07/01 04:43:37;;;;;;;13.00;10.30;;;;;;;;;;108123;1254;22642;-81
2023/07/01 04:46:03;;;;;;;10.40;8.40;;;;;;;;;;108113;1251;22525;-81
2023/07/01 04:48:30;;;;;;;12.40;10.60;;;;;;;;;;108084;1254;22585;-81
2023/07/01 04:50:57;;;;;;;12.70;11.00;;;;;;;;;;108199;1251;22574;-80
2023/07/01 04:53:23;;;;;;;12.10;10.70;;;;;;;;;;107943;1251;25487;-80
2023/07/01 04:55:50;;;;;;;14.00;10.30;;;;;;;;;;108165;1251;25504;-80
2023/07/01 04:58:17;;;;;;;11.40;9.40;;;;;;;;;;108104;1251;22607;-80
2023/07/01 05:00:44;;;;;;;11.00;8.90;;;;;;;;;;108032;1256;22585;-81
2023/07/01 05:03:10;;;;;;;12.00;8.20;;;;;;;;;;108124;1251;22569;-81
2023/07/01 05:05:36;;;;;;;10.50;8.40;;;;;;;;;;108130;1251;22647;-80
2023/07/01 05:08:04;;;;;;;10.90;8.60;;;;;;;;;;108157;1250;24340;-80
2023/07/01 05:10:30;;;;;;;11.20;7.90;;;;;;;;;;107995;1252;22701;-81
2023/07/01 05:12:56;;;;;;;12.30;8.90;;;;;;;;;;108124;1251;22524;-80
2023/07/01 05:15:23;;;;;;;10.20;7.90;;;;;;;;;;108126;1251;25408;-80
2023/07/01 05:17:49;;;;;;;11.90;8.30;;;;;;;;;;108123;1251;22749;-80
2023/07/01 05:20:15;;;;;;;11.50;9.10;;;;;;;;;;108024;1251;22636;-80
2023/07/01 05:22:42;;;;;;;10.40;8.10;;;;;;;;;;108106;1254;25812;-80
2023/07/01 05:25:08;;;;;;;13.00;8.70;;;;;;;;;;108200;1254;25279;-81
2023/07/01 05:27:35;;;;;;;9.50;8.40;;;;;;;;;;108273;1251;22544;-80
2023/07/01 05:30:01;;;;;;;11.90;7.90;;;;;;;;;;108140;1251;22645;-80
2023/07/01 05:32:27;;;;;;;10.50;7.70;;;;;;;;;;108151;1251;23002;-80
2023/07/01 05:34:54;;;;;;;9.70;7.70;;;;;;;;;;108152;1251;25315;-80
2023/07/01 05:37:20;;;;;;;9.70;7.80;;;;;;;;;;108253;1251;22811;-80
2023/07/01 05:39:47;;;;;;;11.90;8.30;;;;;;;;;;108174;1250;25193;-80
2023/07/01 05:42:13;;;;;;;9.90;8.50;;;;;;;;;;108202;1251;22508;-79
2023/07/01 05:44:40;;;;;;;12.60;8.50;;;;;;;;;;108207;1251;22467;-80
2023/07/01 05:47:06;;;;;;;9.10;8.00;;;;;;;;;;108179;1251;22633;-80
2023/07/01 05:49:32;;;;;;;11.20;8.50;;;;;;;;;;108223;1253;22638;-81
2023/07/01 05:51:59;;;;;;;13.40;9.20;;;;;;;;;;108212;1251;25332;-80
2023/07/01 05:54:25;;;;;;;9.50;8.60;;;;;;;;;;108170;1251;22527;-80
2023/07/01 05:56:52;;;;;;;13.70;9.90;;;;;;;;;;108253;1251;22523;-80
2023/07/01 05:59:18;;;;;;;15.50;10.10;;;;;;;;;;108303;1251;25353;-80
2023/07/01 06:01:44;;;;;;;12.90;10.00;;;;;;;;;;108237;1254;25496;-81
2023/07/01 06:04:11;;;;;;;10.90;9.70;;;;;;;;;;108123;1251;22620;-81
2023/07/01 06:06:39;;;;;;;16.90;9.70;;;;;;;;;;108257;1251;25500;-80
2023/07/01 06:09:08;;;;;;;14.60;10.70;;;;;;;;;;108227;1251;23311;-80
2023/07/01 06:11:34;;;;;;;11.50;10.20;;;;;;;;;;108253;1251;22539;-81
2023/07/01 06:14:01;;;;;;;30.70;20.80;;;;;;;;;;108287;1251;24300;-81
2023/07/01 06:16:27;;;;;;;28.10;25.20;;;;;;;;;;107985;1251;22738;-81
2023/07/01 06:18:53;;;;;;;19.30;16.90;;;;;;;;;;108293;1251;22520;-81
2023/07/01 06:21:21;;;;;;;18.50;15.70;;;;;;;;;;108397;1251;22639;-81
2023/07/01 06:23:47;;;;;;;21.50;15.40;;;;;;;;;;108190;1251;22651;-80
2023/07/01 06:26:14;;;;;;;19.60;12.50;;;;;;;;;;108253;1255;25414;-80
2023/07/01 06:28:40;;;;;;;18.30;14.30;;;;;;;;;;108201;1251;22761;-80
2023/07/01 06:31:06;;;;;;;16.20;13.10;;;;;;;;;;108210;1251;22643;-81
2023/07/01 06:33:38;;;;;;;19.90;13.20;;;;;;;;;;108213;1254;22609;-80
2023/07/01 06:36:05;;;;;;;16.10;13.40;;;;;;;;;;108330;1251;22549;-81
2023/07/01 06:38:31;;;;;;;16.70;12.00;;;;;;;;;;108166;1251;22529;-80
2023/07/01 06:40:58;;;;;;;17.60;12.40;;;;;;;;;;108205;1251;22664;-80
2023/07/01 06:43:24;;;;;;;21.30;16.60;;;;;;;;;;108144;1251;23348;-80
2023/07/01 06:45:51;;;;;;;16.80;14.10;;;;;;;;;;108172;1251;22615;-80
2023/07/01 06:48:17;;;;;;;17.80;15.20;;;;;;;;;;108185;1255;22633;-81
2023/07/01 06:50:43;;;;;;;18.80;14.50;;;;;;;;;;108123;1251;23585;-81
2023/07/01 06:53:10;;;;;;;21.70;15.00;;;;;;;;;;108158;1251;23915;-80
2023/07/01 06:55:36;;;;;;;14.70;13.20;;;;;;;;;;108098;1251;22547;-80
2023/07/01 06:58:03;;;;;;;16.60;14.00;;;;;;;;;;108121;1255;22630;-80
2023/07/01 07:00:30;;;;;;;14.50;13.00;;;;;;;;;;108004;1251;22525;-80
2023/07/01 07:02:56;;;;;;;14.80;12.70;;;;;;;;;;108199;1251;25510;-81
2023/07/01 07:05:23;;;;;;;15.50;13.90;;;;;;;;;;108116;1251;22677;-79
2023/07/01 07:07:49;;;;;;;17.20;14.20;;;;;;;;;;108095;1251;138023;-81
2023/07/01 07:10:16;;;;;;;14.10;12.20;;;;;;;;;;108231;1250;24958;-79
2023/07/01 07:12:42;;;;;;;16.00;11.90;;;;;;;;;;108170;1251;24265;-81
2023/07/01 07:15:09;;;;;;;13.30;11.10;;;;;;;;;;108021;1251;22939;-80
2023/07/01 07:17:35;;;;;;;12.90;11.60;;;;;;;;;;108192;1251;22638;-80
2023/07/01 07:20:02;;;;;;;15.70;11.00;;;;;;;;;;108119;1252;22540;-80
2023/07/01 07:22:29;;;;;;;12.30;9.90;;;;;;;;;;108152;1251;23978;-80
2023/07/01 07:24:55;;;;;;;14.90;11.60;;;;;;;;;;108184;1251;26797;-81
2023/07/01 07:27:22;;;;;;;12.20;10.60;;;;;;;;;;108180;1251;25501;-80
2023/07/01 07:29:48;;;;;;;13.90;10.50;;;;;;;;;;108128;1252;25181;-80
2023/07/01 07:32:16;;;;;;;11.50;9.80;;;;;;;;;;108133;1251;23059;-80
2023/07/01 07:34:42;;;;;;;12.80;10.90;;;;;;;;;;108188;1251;22704;-80
2023/07/01 07:37:09;;;;;;;13.60;11.30;;;;;;;;;;108212;1250;24049;-80
2023/07/01 07:39:35;;;;;;;15.00;10.80;;;;;;;;;;108161;1251;22540;-80
2023/07/01 07:42:02;;;;;;;13.90;10.80;;;;;;;;;;108180;1254;23736;-81
2023/07/01 07:44:28;;;;;;;11.90;10.80;;;;;;;;;;108158;1249;22548;-80
2023/07/01 07:46:55;;;;;;;12.50;11.10;;;;;;;;;;108171;1251;24273;-80
2023/07/01 07:49:21;;;;;;;11.70;10.50;;;;;;;;;;108190;1251;22664;-80
2023/07/01 07:51:48;;;;;;;11.70;10.40;;;;;;;;;;108206;1251;22970;-80
2023/07/01 07:54:14;;;;;;;11.60;9.80;;;;;;;;;;108147;1251;22612;-80
2023/07/01 07:56:41;;;;;;;10.60;9.40;;;;;;;;;;108240;1250;24099;-80
2023/07/01 07:59:07;;;;;;;9.50;8.60;;;;;;;;;;108231;1251;22835;-81
2023/07/01 08:01:34;;;;;;;10.90;9.60;;;;;;;;;;108247;1251;22590;-80
2023/07/01 08:04:00;;;;;;;10.60;9.40;;;;;;;;;;108228;1251;22530;-80
2023/07/01 08:06:26;;;;;;;18.20;12.30;;;;;;;;;;108175;1251;22578;-80
2023/07/01 08:08:53;;;;;;;11.60;10.60;;;;;;;;;;108108;1251;24253;-80
2023/07/01 08:11:19;;;;;;;11.20;10.00;;;;;;;;;;108186;1251;23287;-80
2023/07/01 08:13:46;;;;;;;11.70;10.10;;;;;;;;;;108208;1251;24358;-80
2023/07/01 08:16:14;;;;;;;10.70;9.60;;;;;;;;;;108165;1251;22633;-80
2023/07/01 08:18:41;;;;;;;10.90;9.80;;;;;;;;;;108138;1251;22537;-80
2023/07/01 08:21:07;;;;;;;13.90;10.90;;;;;;;;;;108209;1251;22580;-80
2023/07/01 08:23:34;;;;;;;14.20;11.90;;;;;;;;;;108105;1251;25362;-80
2023/07/01 08:26:00;;;;;;;11.40;10.30;;;;;;;;;;108131;1255;25384;-80
2023/07/01 08:28:31;;;;;;;12.20;10.60;;;;;;;;;;108147;1251;23315;-80
2023/07/01 08:30:58;;;;;;;11.20;9.40;;;;;;;;;;108113;1251;23098;-80
2023/07/01 08:33:25;;;;;;;11.00;9.90;;;;;;;;;;108143;1251;24277;-80
2023/07/01 08:35:51;;;;;;;11.00;9.90;;;;;;;;;;108092;1251;22626;-80
2023/07/01 08:38:18;;;;;;;11.80;9.60;;;;;;;;;;108049;1251;22725;-80
2023/07/01 08:40:45;;;;;;;11.40;10.20;;;;;;;;;;108140;1251;22527;-80
2023/07/01 08:43:12;;;;;;;10.60;9.40;;;;;;;;;;108197;1251;25407;-80
2023/07/01 08:45:38;;;;;;;11.50;8.90;;;;;;;;;;108172;1251;22866;-80
2023/07/01 08:48:05;;;;;;;12.00;10.70;;;;;;;;;;108097;1251;22532;-80
2023/07/01 08:50:55;;;;;;;11.00;9.60;;;;;;;;;;107899;1251;22658;-80
2023/07/01 08:53:22;;;;;;;10.50;9.20;;;;;;;;;;108119;1253;22566;-80
2023/07/01 08:55:48;;;;;;;11.30;9.70;;;;;;;;;;108199;1254;25317;-80
2023/07/01 08:58:15;;;;;;;10.50;9.40;;;;;;;;;;107969;1251;22548;-80
2023/07/01 09:00:42;;;;;;;12.60;9.10;;;;;;;;;;108020;1251;22564;-80
2023/07/01 09:03:09;;;;;;;10.30;8.50;;;;;;;;;;108027;1256;22543;-80
2023/07/01 09:05:36;;;;;;;11.60;8.10;;;;;;;;;;108020;1251;25340;-80
2023/07/01 09:08:02;;;;;;;13.60;10.50;;;;;;;;;;108126;1251;22579;-80
2023/07/01 09:10:29;;;;;;;12.00;7.80;;;;;;;;;;108117;1251;25378;-80
2023/07/01 09:12:55;;;;;;;13.00;8.20;;;;;;;;;;108125;1251;25480;-80
2023/07/01 09:15:21;;;;;;;10.00;7.80;;;;;;;;;;108155;1251;24006;-80
2023/07/01 09:17:48;;;;;;;8.60;7.30;;;;;;;;;;108202;1250;22565;-81
2023/07/01 09:20:14;;;;;;;11.30;7.40;;;;;;;;;;108090;1254;25406;-80
2023/07/01 09:22:42;;;;;;;8.50;7.50;;;;;;;;;;108260;1251;25360;-80
2023/07/01 09:25:09;;;;;;;8.30;7.20;;;;;;;;;;109557;1249;22440;-81
2023/07/01 09:27:49;;;;;;;14.80;8.30;;;;;;;;;;110180;1251;22591;-80
2023/07/01 09:30:22;;;;;;;9.20;6.80;;;;;;;;;;108175;1252;27503;-80
2023/07/01 09:32:49;;;;;;;10.10;6.90;;;;;;;;;;108126;1251;24386;-80
2023/07/01 09:35:15;;;;;;;8.40;7.10;;;;;;;;;;108257;1252;22606;-80
2023/07/01 09:37:41;;;;;;;12.00;7.90;;;;;;;;;;108325;1250;23063;-80
2023/07/01 09:40:17;;;;;;;12.00;7.50;;;;;;;;;;108341;1251;22684;-81
2023/07/01 09:42:56;;;;;;;12.00;6.80;;;;;;;;;;108381;1251;22528;-80
2023/07/01 09:45:22;;;;;;;13.40;8.70;;;;;;;;;;108218;1251;22531;-80
2023/07/01 09:47:52;;;;;;;7.90;7.10;;;;;;;;;;108131;1251;25461;-80
2023/07/01 09:50:30;;;;;;;9.90;6.30;;;;;;;;;;108117;1251;22595;-80
2023/07/01 09:52:57;;;;;;;9.80;7.20;;;;;;;;;;108229;1251;22528;-80
2023/07/01 09:55:23;;;;;;;7.60;6.50;;;;;;;;;;108191;1251;22601;-80
2023/07/01 09:57:50;;;;;;;7.30;5.60;;;;;;;;;;108152;1249;22576;-80
2023/07/01 10:00:17;;;;;;;8.30;6.10;;;;;;;;;;108231;1251;22533;-80
2023/07/01 10:02:46;;;;;;;8.10;6.20;;;;;;;;;;108318;1265;22575;-80
2023/07/01 10:05:13;;;;;;;7.10;6.30;;;;;;;;;;108163;1251;23810;-80
2023/07/01 10:07:43;;;;;;;6.50;5.90;;;;;;;;;;108191;1251;24335;-81
2023/07/01 10:10:13;;;;;;;6.80;6.10;;;;;;;;;;108030;1250;23749;-80
2023/07/01 10:12:40;;;;;;;8.10;5.70;;;;;;;;;;108400;1251;22702;-81
2023/07/01 10:15:08;;;;;;;6.60;5.50;;;;;;;;;;108213;1252;25348;-81
2023/07/01 10:17:44;;;;;;;9.50;6.30;;;;;;;;;;108211;1251;22714;-80
2023/07/01 10:20:29;;;;;;;6.50;5.80;;;;;;;;;;108257;1251;22553;-80
2023/07/01 10:22:56;;;;;;;6.00;5.40;;;;;;;;;;108613;1251;22518;-80
2023/07/01 10:25:33;;;;;;;11.00;5.90;;;;;;;;;;108265;1251;23220;-81
2023/07/01 10:28:03;;;;;;;9.00;6.10;;;;;;;;;;108669;1251;22252;-81
2023/07/01 10:30:55;;;;;;;8.20;6.20;;;;;;;;;;110667;1251;22318;-81
2023/07/01 10:33:24;;;;;;;5.30;4.70;;;;;;;;;;110434;1251;22383;-81
2023/07/01 10:36:01;;;;;;;5.60;4.90;;;;;;;;;;108552;1255;25246;-81
2023/07/01 10:38:30;;;;;;;7.20;5.20;;;;;;;;;;109089;1251;22325;-81
2023/07/01 10:40:56;;;;;;;7.00;5.60;;;;;;;;;;108472;1251;24344;-81
2023/07/01 10:43:23;;;;;;;8.80;6.20;;;;;;;;;;108150;1252;22558;-81
2023/07/01 10:46:10;;;;;;;9.70;6.60;;;;;;;;;;108101;1252;23323;-81
2023/07/01 10:48:37;;;;;;;7.00;5.70;;;;;;;;;;108226;1251;22533;-80
2023/07/01 10:51:04;;;;;;;11.70;6.40;;;;;;;;;;108846;1251;24263;-80
2023/07/01 10:53:31;;;;;;;7.50;6.50;;;;;;;;;;109136;1251;22293;-81
2023/07/01 10:56:11;;;;;;;7.40;6.40;;;;;;;;;;110618;1251;22447;-81
2023/07/01 10:58:38;;;;;;;7.20;5.60;;;;;;;;;;108494;1251;22708;-81
2023/07/01 11:01:04;;;;;;;6.40;5.30;;;;;;;;;;108118;1251;22773;-81
2023/07/01 11:03:34;;;;;;;6.50;4.80;;;;;;;;;;108123;1251;24237;-81
2023/07/01 11:06:01;;;;;;;5.10;4.60;;;;;;;;;;108140;1251;24274;-81
2023/07/01 11:08:28;;;;;;;5.20;4.30;;;;;;;;;;108158;1252;22556;-81
2023/07/01 11:10:55;;;;;;;6.60;4.50;;;;;;;;;;108221;1251;24204;-81
2023/07/01 11:13:21;;;;;;;5.00;4.00;;;;;;;;;;109095;1250;22909;-81
2023/07/01 11:16:03;;;;;;;8.70;5.10;;;;;;;;;;108726;1250;22572;-81
2023/07/01 11:18:41;;;;;;;4.60;3.70;;;;;;;;;;108206;1252;22554;-81
2023/07/01 11:21:07;;;;;;;;;;;;;;;;;;110693;1251;23117;-81
2023/07/01 11:23:34;;;;;;;5.30;4.20;;;;;;;;;;110698;1250;22419;-81
2023/07/01 11:26:00;;;;;;;7.90;4.70;;;;;;;;;;110710;1250;22322;-81
2023/07/01 11:28:30;;;;;;;5.00;4.50;;;;;;;;;;110544;1251;22324;-81
2023/07/01 11:31:08;;;;;;;7.40;4.90;;;;;;;;;;110562;1257;22270;-82
2023/07/01 11:33:34;;;;;;;8.00;5.50;;;;;;;;;;110712;1251;22336;-82
2023/07/01 11:36:01;;;;;;;7.50;5.40;;;;;;;;;;110675;1251;22936;-82
2023/07/01 11:38:29;;;;;;;5.90;5.00;;;;;;;;;;108659;1249;22626;-81
2023/07/01 11:40:56;;;;;;;6.10;4.80;;;;;;;;;;107853;1251;23046;-82
2023/07/01 11:43:22;;;;;;;7.10;5.40;;;;;;;;;;107728;1251;22602;-82
2023/07/01 11:45:50;;;;;;;6.40;5.30;;;;;;;;;;107980;1250;22988;-82
2023/07/01 11:48:27;;;;;;;8.90;5.30;;;;;;;;;;108013;1254;22567;-82
2023/07/01 11:50:54;;;;;;;5.90;5.30;;;;;;;;;;108267;1251;22531;-81
2023/07/01 11:53:20;;;;;;;5.10;4.60;;;;;;;;;;107894;1251;22996;-81
2023/07/01 11:55:46;;;;;;;5.80;4.70;;;;;;;;;;107794;1251;22637;-81
2023/07/01 11:58:32;;;;;;;5.10;4.60;;;;;;;;;;107868;1251;26622;-81
2023/07/01 12:00:59;;;;;;;6.50;4.40;;;;;;;;;;107835;1251;24305;-82
2023/07/01 12:03:31;;;;;;;5.50;4.60;;;;;;;;;;107801;1251;22846;-81
2023/07/01 12:05:57;;;;;;;6.40;4.50;;;;;;;;;;107657;1254;24381;-82
2023/07/01 12:08:24;;;;;;;4.90;4.40;;;;;;;;;;107825;1251;22672;-82
2023/07/01 12:10:52;;;;;;;7.90;4.40;;;;;;;;;;107797;1251;22995;-81
2023/07/01 12:13:29;;;;;;;4.70;4.00;;;;;;;;;;107817;1251;24348;-82
2023/07/01 12:15:57;;;;;;;7.20;4.10;;;;;;;;;;107886;1251;23761;-82
2023/07/01 12:18:27;;;;;;;4.50;3.80;;;;;;;;;;107882;1254;25320;-82
2023/07/01 12:20:56;;;;;;;4.80;4.10;;;;;;;;;;107776;1251;24341;-82
2023/07/01 12:23:23;;;;;;;7.50;5.70;;;;;;;;;;107938;1249;22567;-82
2023/07/01 12:25:49;;;;;;;7.60;5.10;;;;;;;;;;107845;1250;22560;-81
2023/07/01 12:28:19;;;;;;;7.90;5.40;;;;;;;;;;107854;1250;22581;-81
2023/07/01 12:30:46;;;;;;;10.30;5.30;;;;;;;;;;107791;1251;22524;-81
2023/07/01 12:33:13;;;;;;;8.10;5.70;;;;;;;;;;107793;1251;23647;-81
2023/07/01 12:35:40;;;;;;;6.10;5.50;;;;;;;;;;107848;1251;23018;-81
2023/07/01 12:38:10;;;;;;;6.80;6.10;;;;;;;;;;107884;1251;22583;-81
2023/07/01 12:40:36;;;;;;;7.40;6.60;;;;;;;;;;107805;1253;23929;-81
2023/07/01 12:43:03;;;;;;;7.60;6.30;;;;;;;;;;107897;1251;24302;-81
2023/07/01 12:45:29;;;;;;;7.00;6.30;;;;;;;;;;107772;1253;22560;-81
2023/07/01 12:47:56;;;;;;;8.30;5.70;;;;;;;;;;107849;1252;22527;-80
2023/07/01 12:50:23;;;;;;;6.10;5.50;;;;;;;;;;107836;1255;22527;-81
2023/07/01 12:52:50;;;;;;;12.30;6.00;;;;;;;;;;107904;1251;25497;-81
2023/07/01 12:55:16;;;;;;;6.30;5.20;;;;;;;;;;107827;1251;22638;-81
2023/07/01 12:57:43;;;;;;;9.60;8.50;;;;;;;;;;107944;1251;24187;-82
2023/07/01 13:00:09;;;;;;;6.30;5.50;;;;;;;;;;107837;1251;24341;-81
2023/07/01 13:02:37;;;;;;;8.90;5.10;;;;;;;;;;107809;1250;22534;-81
2023/07/01 13:05:03;;;;;;;5.20;4.70;;;;;;;;;;107905;1251;24167;-82
2023/07/01 13:07:30;;;;;;;5.90;5.00;;;;;;;;;;107799;1249;22534;-82
2023/07/01 13:09:58;;;;;;;5.80;4.00;;;;;;;;;;107798;1255;22683;-82
2023/07/01 13:12:25;;;;;;;5.30;4.30;;;;;;;;;;107798;1253;25826;-81
2023/07/01 13:14:52;;;;;;;10.70;4.20;;;;;;;;;;107848;1251;22563;-82
2023/07/01 13:17:30;;;;;;;4.80;4.20;;;;;;;;;;107834;1250;22566;-82
2023/07/01 13:19:56;;;;;;;37.10;7.10;;;;;;;;;;107942;1252;22586;-82
2023/07/01 13:22:22;;;;;;;6.30;5.10;;;;;;;;;;107827;1250;23242;-82
2023/07/01 13:24:49;;;;;;;6.10;3.90;;;;;;;;;;107851;1252;24237;-83
2023/07/01 13:27:15;;;;;;;4.80;4.10;;;;;;;;;;107869;1251;22600;-82
2023/07/01 13:29:42;;;;;;;8.20;4.00;;;;;;;;;;107813;1253;22559;-82
2023/07/01 13:32:08;;;;;;;4.50;3.70;;;;;;;;;;107887;1251;25434;-82
2023/07/01 13:34:38;;;;;;;4.90;3.90;;;;;;;;;;108039;1251;25467;-82
2023/07/01 13:37:05;;;;;;;4.90;4.10;;;;;;;;;;107995;1251;22517;-82
2023/07/01 13:39:41;;;;;;;6.10;4.40;;;;;;;;;;107925;1251;22639;-83
2023/07/01 13:42:08;;;;;;;6.50;4.50;;;;;;;;;;108058;1251;24440;-82
2023/07/01 13:44:35;;;;;;;5.60;4.00;;;;;;;;;;107969;1251;22524;-82
2023/07/01 13:47:02;;;;;;;7.00;4.20;;;;;;;;;;107885;1251;23524;-82
2023/07/01 13:49:29;;;;;;;5.60;4.00;;;;;;;;;;108004;1251;24892;-82
2023/07/01 13:51:55;;;;;;;5.20;4.70;;;;;;;;;;107780;1251;23160;-82
2023/07/01 13:54:22;;;;;;;5.40;4.50;;;;;;;;;;107839;1252;22670;-82
2023/07/01 13:56:49;;;;;;;5.50;4.90;;;;;;;;;;107856;1253;22549;-82
2023/07/01 13:59:16;;;;;;;8.30;5.30;;;;;;;;;;107810;1251;22707;-82
2023/07/01 14:01:59;;;;;;;6.40;4.40;;;;;;;;;;107509;1251;23070;-82
2023/07/01 14:04:25;;;;;;;6.00;5.20;;;;;;;;;;107852;1252;25387;-81
2023/07/01 14:06:52;;;;;;;5.90;5.40;;;;;;;;;;107807;1251;24257;-82
2023/07/01 14:09:21;;;;;;;9.80;5.50;;;;;;;;;;107820;1251;22528;-82
2023/07/01 14:11:48;;;;;;;5.80;5.00;;;;;;;;;;107782;1250;24317;-82
2023/07/01 14:14:19;;;;;;;5.30;4.80;;;;;;;;;;107687;1252;22629;-82
2023/07/01 14:16:49;;;;;;;6.70;5.10;;;;;;;;;;107805;1251;22573;-82
2023/07/01 14:19:16;;;;;;;8.00;7.00;;;;;;;;;;107870;1253;22559;-82
2023/07/01 14:21:44;;;;;;;8.90;6.10;;;;;;;;;;107835;1253;22573;-82